LFRU 091030Z AUTO 16009KT 140V200 9999 OVC009 09/07 Q1004

ElémentsDécodage
LFRU Station météo située sur l'aérodrome de MORLAIX Ploujeau
091030Z émis le 09 du mois à 10h30 UTC
AUTO Bulletin édité par un automate
16009KT vent du 160°, 09 noeuds
140V200 vent de direction variable entre 140° et 200°
9999 visibilité horizontale supérieure à 10 Km
OVC009 couverture nuageuse totale (8/8) à 900 pieds
09/07 température 09°C, point de rosée 07°C
 soit une humidité relative de 87%
Q1004 la pression au niveau de la mer (QNH) est de 1004 hPa